Time,TemperatureF,DewpointF,PressureIn,WindDirection,WindDirectionDegrees,WindSpeedMPH,WindSpeedGustMPH,Humidity,HourlyPrecipIn,Conditions,Clouds,dailyrainin,SoftwareType,DateUTC
2013-04-25 00:01:00,72.0,32.2,29.99,WSW,248,2.0,3.0,23,0.00,,SKC,0.00,VWS V14.01,2013-04-25 07:01:00,
2013-04-25 00:07:00,71.0,31.4,29.99,WSW,248,3.0,3.0,23,0.00,,SKC,0.00,VWS V14.01,2013-04-25 07:07:00,
2013-04-25 00:12:00,71.0,31.4,29.99,SW,225,3.0,3.0,23,0.00,,SKC,0.00,VWS V14.01,2013-04-25 07:12:00,
2013-04-25 00:17:00,71.0,32.4,29.99,SW,225,0.0,0.0,24,0.00,,SKC,0.00,VWS V14.01,2013-04-25 07:17:00,
2013-04-25 00:22:00,71.0,32.4,29.99,East,90,0.0,1.0,24,0.00,,SKC,0.00,VWS V14.01,2013-04-25 07:22:00,
2013-04-25 00:27:00,71.0,33.4,29.99,ENE,68,0.0,0.0,25,0.00,,SKC,0.00,VWS V14.01,2013-04-25 07:27:00,
2013-04-25 00:33:00,70.0,32.6,29.98,NE,45,1.0,1.0,25,0.00,,SKC,0.00,VWS V14.01,2013-04-25 07:33:00,
2013-04-25 00:38:00,70.0,32.6,29.97,NE,45,0.0,0.0,25,0.00,,SKC,0.00,VWS V14.01,2013-04-25 07:38:00,
2013-04-25 00:43:00,70.0,32.6,29.98,NE,45,0.0,0.0,25,0.00,,SKC,0.00,VWS V14.01,2013-04-25 07:43:00,
2013-04-25 00:48:00,70.0,32.6,29.97,NE,45,0.0,0.0,25,0.00,,SKC,0.00,VWS V14.01,2013-04-25 07:48:00,
2013-04-25 00:53:00,70.0,31.6,29.97,NE,45,0.0,0.0,24,0.00,,SKC,0.00,VWS V14.01,2013-04-25 07:53:00,
2013-04-25 00:59:00,70.0,31.6,29.97,NE,45,0.0,0.0,24,0.00,,SKC,0.00,VWS V14.01,2013-04-25 07:59:00,
2013-04-25 01:04:00,70.0,31.6,29.97,NNW,338,0.0,0.0,24,0.00,,SKC,0.00,VWS V14.01,2013-04-25 08:04:00,
2013-04-25 01:09:00,70.0,32.6,29.97,NW,315,0.0,0.0,25,0.00,,SKC,0.00,VWS V14.01,2013-04-25 08:09:00,
2013-04-25 01:14:00,69.0,31.8,29.97,NW,315,5.0,5.0,25,0.00,,SKC,0.00,VWS V14.01,2013-04-25 08:14:00,
2013-04-25 01:19:00,69.0,32.7,29.97,WNW,292,5.0,5.0,26,0.00,,SKC,0.00,VWS V14.01,2013-04-25 08:19:00,
2013-04-25 01:24:00,69.0,32.7,29.97,West,270,6.0,6.0,26,0.00,,SKC,0.00,VWS V14.01,2013-04-25 08:24:00,
2013-04-25 01:30:00,68.0,31.9,29.97,WNW,292,5.0,6.0,26,0.00,,SKC,0.00,VWS V14.01,2013-04-25 08:30:00,
2013-04-25 01:36:00,69.0,32.7,29.97,West,270,6.0,6.0,26,0.00,,SKC,0.00,VWS V14.01,2013-04-25 08:36:00,
2013-04-25 01:41:00,69.0,31.8,29.97,West,270,4.0,6.0,25,0.00,,SKC,0.00,VWS V14.01,2013-04-25 08:41:00,
2013-04-25 01:46:00,69.0,31.8,29.97,West,270,6.0,7.0,25,0.00,,SKC,0.00,VWS V14.01,2013-04-25 08:46:00,
2013-04-25 01:51:00,69.0,31.8,29.97,WSW,248,5.0,5.0,25,0.00,,SKC,0.00,VWS V14.01,2013-04-25 08:51:00,
2013-04-25 01:56:00,70.0,31.6,29.97,West,270,4.0,4.0,24,0.00,,SKC,0.00,VWS V14.01,2013-04-25 08:56:00,
2013-04-25 02:01:00,70.0,31.6,29.96,WSW,248,4.0,4.0,24,0.00,,SKC,0.00,VWS V14.01,2013-04-25 09:01:00,
2013-04-25 02:06:00,70.0,31.6,29.96,WSW,248,4.0,5.0,24,0.00,,SKC,0.00,VWS V14.01,2013-04-25 09:06:00,
2013-04-25 02:11:00,70.0,31.6,29.96,WSW,248,5.0,5.0,24,0.00,,SKC,0.00,VWS V14.01,2013-04-25 09:11:00,
2013-04-25 02:16:00,70.0,31.6,29.96,West,270,4.0,4.0,24,0.00,,SKC,0.00,VWS V14.01,2013-04-25 09:16:00,
2013-04-25 02:21:00,70.0,31.6,29.96,WNW,292,5.0,5.0,24,0.00,,SKC,0.00,VWS V14.01,2013-04-25 09:21:00,
2013-04-25 02:26:00,70.0,31.6,29.96,West,270,3.0,3.0,24,0.00,,SKC,0.00,VWS V14.01,2013-04-25 09:26:00,
2013-04-25 02:31:00,69.0,31.8,29.96,ENE,68,0.0,0.0,25,0.00,,SKC,0.00,VWS V14.01,2013-04-25 09:31:00,
2013-04-25 02:36:00,69.0,31.8,29.96,NE,45,0.0,0.0,25,0.00,,SKC,0.00,VWS V14.01,2013-04-25 09:36:00,
2013-04-25 02:41:00,69.0,31.8,29.96,NE,45,0.0,0.0,25,0.00,,SKC,0.00,VWS V14.01,2013-04-25 09:41:00,
2013-04-25 02:46:00,69.0,31.8,29.96,NNE,22,0.0,0.0,25,0.00,,SKC,0.00,VWS V14.01,2013-04-25 09:46:00,
2013-04-25 02:51:00,69.0,31.8,29.97,NE,45,0.0,0.0,25,0.00,,SKC,0.00,VWS V14.01,2013-04-25 09:51:00,
2013-04-25 02:56:00,68.0,30.9,29.97,NE,45,0.0,0.0,25,0.00,,SKC,0.00,VWS V14.01,2013-04-25 09:56:00,
2013-04-25 03:01:00,68.0,31.9,29.97,North,0,0.0,0.0,26,0.00,,SKC,0.00,VWS V14.01,2013-04-25 10:01:00,
2013-04-25 03:06:00,68.0,31.9,29.97,North,0,0.0,0.0,26,0.00,,SKC,0.00,VWS V14.01,2013-04-25 10:06:00,
2013-04-25 03:11:00,68.0,31.9,29.96,NNE,22,0.0,0.0,26,0.00,,SKC,0.00,VWS V14.01,2013-04-25 10:11:00,
2013-04-25 03:16:00,69.0,32.7,29.97,NNE,22,0.0,0.0,26,0.00,,SKC,0.00,VWS V14.01,2013-04-25 10:16:00,
2013-04-25 03:21:00,69.0,32.7,29.96,NNE,22,0.0,0.0,26,0.00,,SKC,0.00,VWS V14.01,2013-04-25 10:21:00,
2013-04-25 03:26:00,69.0,31.8,29.96,NNE,22,0.0,0.0,25,0.00,,SKC,0.00,VWS V14.01,2013-04-25 10:26:00,
2013-04-25 03:31:00,69.0,32.7,29.96,ENE,68,2.0,3.0,26,0.00,,SKC,0.00,VWS V14.01,2013-04-25 10:31:00,
2013-04-25 03:36:00,68.0,31.9,29.96,NE,45,3.0,3.0,26,0.00,,SKC,0.00,VWS V14.01,2013-04-25 10:36:00,
2013-04-25 03:41:00,68.0,31.9,29.96,ENE,68,2.0,3.0,26,0.00,,SKC,0.00,VWS V14.01,2013-04-25 10:41:00,
2013-04-25 03:46:00,68.0,31.9,29.96,ENE,68,0.0,1.0,26,0.00,,SKC,0.00,VWS V14.01,2013-04-25 10:46:00,
2013-04-25 03:51:00,69.0,31.8,29.96,ENE,68,0.0,1.0,25,0.00,,SKC,0.00,VWS V14.01,2013-04-25 10:51:00,
2013-04-25 03:56:00,69.0,31.8,29.96,East,90,2.0,2.0,25,0.00,,SKC,0.00,VWS V14.01,2013-04-25 10:56:00,
2013-04-25 04:01:00,69.0,31.8,29.96,ENE,68,0.0,1.0,25,0.00,,SKC,0.00,VWS V14.01,2013-04-25 11:01:00,
2013-04-25 04:06:00,69.0,30.7,29.96,SSE,158,0.0,0.0,24,0.00,,SKC,0.00,VWS V14.01,2013-04-25 11:06:00,
2013-04-25 04:11:00,69.0,30.7,29.96,East,90,4.0,5.0,24,0.00,,SKC,0.00,VWS V14.01,2013-04-25 11:11:00,
2013-04-25 04:16:00,70.0,31.6,29.96,SSE,158,5.0,6.0,24,0.00,,SKC,0.00,VWS V14.01,2013-04-25 11:16:00,
2013-04-25 04:21:00,70.0,31.6,29.96,ESE,112,5.0,6.0,24,0.00,,SKC,0.00,VWS V14.01,2013-04-25 11:21:00,
2013-04-25 04:26:00,70.0,31.6,29.96,SE,135,6.0,6.0,24,0.00,,SKC,0.00,VWS V14.01,2013-04-25 11:26:00,
2013-04-25 04:31:00,70.0,30.5,29.96,ESE,112,6.0,6.0,23,0.00,,SKC,0.00,VWS V14.01,2013-04-25 11:31:00,
2013-04-25 04:36:00,71.0,31.4,29.96,ESE,112,6.0,8.0,23,0.00,,SKC,0.00,VWS V14.01,2013-04-25 11:36:00,
2013-04-25 04:41:00,71.0,31.4,29.96,SE,135,5.0,6.0,23,0.00,,SKC,0.00,VWS V14.01,2013-04-25 11:41:00,
2013-04-25 04:46:00,71.0,31.4,29.96,SSE,158,1.0,3.0,23,0.00,,SKC,0.00,VWS V14.01,2013-04-25 11:46:00,
2013-04-25 04:51:00,71.0,31.4,29.96,SE,135,8.0,8.0,23,0.00,,SKC,0.00,VWS V14.01,2013-04-25 11:51:00,
2013-04-25 04:56:00,71.0,31.4,29.96,ESE,112,8.0,8.0,23,0.00,,SKC,0.00,VWS V14.01,2013-04-25 11:56:00,
2013-04-25 05:01:00,71.0,30.3,29.96,South,180,4.0,8.0,22,0.00,,SKC,0.00,VWS V14.01,2013-04-25 12:01:00,
2013-04-25 05:06:00,71.0,30.3,29.97,SE,135,3.0,5.0,22,0.00,,SKC,0.00,VWS V14.01,2013-04-25 12:06:00,
2013-04-25 05:11:00,71.0,30.3,29.97,SW,225,5.0,7.0,22,0.00,,SKC,0.00,VWS V14.01,2013-04-25 12:11:00,
2013-04-25 05:16:00,71.0,30.3,29.97,SSE,158,8.0,9.0,22,0.00,,SKC,0.00,VWS V14.01,2013-04-25 12:16:00,
2013-04-25 05:21:00,71.0,31.4,29.97,SSE,158,4.0,5.0,23,0.00,,SKC,0.00,VWS V14.01,2013-04-25 12:21:00,
2013-04-25 05:26:00,70.0,30.5,29.97,South,180,2.0,2.0,23,0.00,,SKC,0.00,VWS V14.01,2013-04-25 12:26:00,
2013-04-25 05:31:00,70.0,30.5,29.97,SW,225,1.0,3.0,23,0.00,,SKC,0.00,VWS V14.01,2013-04-25 12:31:00,
2013-04-25 05:36:00,70.0,30.5,29.97,SSE,158,5.0,5.0,23,0.00,,SKC,0.00,VWS V14.01,2013-04-25 12:36:00,
2013-04-25 05:41:00,70.0,30.5,29.98,SSW,202,5.0,6.0,23,0.00,,SKC,0.00,VWS V14.01,2013-04-25 12:41:00,
2013-04-25 05:46:00,70.0,30.5,29.98,SSW,202,6.0,8.0,23,0.00,,SKC,0.00,VWS V14.01,2013-04-25 12:46:00,
2013-04-25 05:51:00,70.0,30.5,29.98,South,180,3.0,3.0,23,0.00,,SKC,0.00,VWS V14.01,2013-04-25 12:51:00,
2013-04-25 05:56:00,69.0,30.7,29.98,West,270,3.0,5.0,24,0.00,,SKC,0.00,VWS V14.01,2013-04-25 12:56:00,
2013-04-25 06:01:00,69.0,30.7,29.98,South,180,6.0,6.0,24,0.00,,SKC,0.00,VWS V14.01,2013-04-25 13:01:00,
2013-04-25 06:06:00,69.0,30.7,29.99,South,180,3.0,5.0,24,0.00,,SKC,0.00,VWS V14.01,2013-04-25 13:06:00,
2013-04-25 06:11:00,69.0,30.7,29.99,SW,225,3.0,5.0,24,0.00,,SKC,0.00,VWS V14.01,2013-04-25 13:11:00,
2013-04-25 06:16:00,69.0,30.7,29.98,South,180,5.0,5.0,24,0.00,,SKC,0.00,VWS V14.01,2013-04-25 13:16:00,
2013-04-25 06:21:00,69.0,31.8,29.98,SSE,158,3.0,3.0,25,0.00,,SKC,0.00,VWS V14.01,2013-04-25 13:21:00,
2013-04-25 06:26:00,68.0,30.9,29.98,SSE,158,5.0,6.0,25,0.00,,SKC,0.00,VWS V14.01,2013-04-25 13:26:00,
2013-04-25 06:31:00,68.0,30.9,29.98,SSE,158,4.0,4.0,25,0.00,,SKC,0.00,VWS V14.01,2013-04-25 13:31:00,
2013-04-25 06:36:00,68.0,30.9,29.98,SSE,158,5.0,5.0,25,0.00,,SKC,0.00,VWS V14.01,2013-04-25 13:36:00,
2013-04-25 06:41:00,69.0,31.8,29.98,South,180,4.0,4.0,25,0.00,,SKC,0.00,VWS V14.01,2013-04-25 13:41:00,
2013-04-25 06:46:00,69.0,31.8,29.99,South,180,4.0,5.0,25,0.00,,SKC,0.00,VWS V14.01,2013-04-25 13:46:00,
2013-04-25 06:51:00,69.0,31.8,29.99,SSW,202,3.0,5.0,25,0.00,,SKC,0.00,VWS V14.01,2013-04-25 13:51:00,
2013-04-25 06:56:00,69.0,31.8,29.99,SSE,158,5.0,5.0,25,0.00,,SKC,0.00,VWS V14.01,2013-04-25 13:56:00,
2013-04-25 07:01:00,70.0,31.6,30.00,SSW,202,3.0,3.0,24,0.00,,SKC,0.00,VWS V14.01,2013-04-25 14:01:00,
2013-04-25 07:06:00,70.0,30.5,30.00,SE,135,3.0,4.0,23,0.00,,SKC,0.00,VWS V14.01,2013-04-25 14:06:00,
2013-04-25 07:11:00,71.0,31.4,30.00,SW,225,6.0,6.0,23,0.00,,SKC,0.00,VWS V14.01,2013-04-25 14:11:00,
2013-04-25 07:16:00,71.0,30.3,30.00,SSW,202,3.0,5.0,22,0.00,,SKC,0.00,VWS V14.01,2013-04-25 14:16:00,
2013-04-25 07:21:00,72.0,31.1,30.00,SE,135,3.0,5.0,22,0.00,,SKC,0.00,VWS V14.01,2013-04-25 14:21:00,
2013-04-25 07:26:00,72.0,30.0,30.00,South,180,6.0,8.0,21,0.00,,SKC,0.00,VWS V14.01,2013-04-25 14:26:00,
2013-04-25 07:31:00,72.0,30.0,30.00,SSE,158,8.0,8.0,21,0.00,,SKC,0.00,VWS V14.01,2013-04-25 14:31:00,
2013-04-25 07:36:00,72.0,30.0,30.00,SSE,158,6.0,8.0,21,0.00,,SKC,0.00,VWS V14.01,2013-04-25 14:36:00,
2013-04-25 07:41:00,72.0,30.0,30.00,SSE,158,11.0,11.0,21,0.00,,SKC,0.00,VWS V14.01,2013-04-25 14:41:00,
2013-04-25 07:46:00,73.0,30.8,30.00,SSE,158,10.0,11.0,21,0.00,,SKC,0.00,VWS V14.01,2013-04-25 14:46:00,
2013-04-25 07:51:00,73.0,29.6,30.00,SW,225,8.0,11.0,20,0.00,,SKC,0.00,VWS V14.01,2013-04-25 14:51:00,
2013-04-25 07:56:00,73.0,29.6,30.00,SSE,158,4.0,5.0,20,0.00,,SKC,0.00,VWS V14.01,2013-04-25 14:56:00,
2013-04-25 08:01:00,73.0,29.6,30.00,SE,135,8.0,8.0,20,0.00,,SKC,0.00,VWS V14.01,2013-04-25 15:01:00,
2013-04-25 08:06:00,74.0,31.6,30.00,ESE,112,4.0,6.0,21,0.00,,SKC,0.00,VWS V14.01,2013-04-25 15:06:00,
2013-04-25 08:11:00,74.0,30.4,30.00,SE,135,12.0,13.0,20,0.00,,SKC,0.00,VWS V14.01,2013-04-25 15:11:00,
2013-04-25 08:16:00,74.0,30.4,30.00,SE,135,6.0,7.0,20,0.00,,SKC,0.00,VWS V14.01,2013-04-25 15:16:00,
2013-04-25 08:21:00,74.0,29.2,30.00,SW,225,6.0,10.0,19,0.00,,SKC,0.00,VWS V14.01,2013-04-25 15:21:00,
2013-04-25 08:26:00,75.0,31.2,30.00,SSE,158,7.0,8.0,20,0.00,,SKC,0.00,VWS V14.01,2013-04-25 15:26:00,
2013-04-25 08:31:00,75.0,30.0,29.99,East,90,11.0,11.0,19,0.00,,SKC,0.00,VWS V14.01,2013-04-25 15:31:00,
2013-04-25 08:36:00,75.0,30.0,29.99,South,180,10.0,11.0,19,0.00,,SKC,0.00,VWS V14.01,2013-04-25 15:36:00,
2013-04-25 08:41:00,75.0,30.0,29.99,SSE,158,6.0,9.0,19,0.00,,SKC,0.00,VWS V14.01,2013-04-25 15:41:00,
2013-04-25 08:46:00,75.0,28.7,29.99,South,180,11.0,12.0,18,0.00,,SKC,0.00,VWS V14.01,2013-04-25 15:46:00,
2013-04-25 08:51:00,75.0,28.7,30.00,South,180,10.0,13.0,18,0.00,,SKC,0.00,VWS V14.01,2013-04-25 15:51:00,
2013-04-25 08:56:00,76.0,29.5,30.00,ESE,112,13.0,14.0,18,0.00,,SKC,0.00,VWS V14.01,2013-04-25 15:56:00,
2013-04-25 09:01:00,76.0,29.5,30.00,ESE,112,16.0,16.0,18,0.00,,SKC,0.00,VWS V14.01,2013-04-25 16:01:00,
2013-04-25 09:06:00,76.0,29.5,30.00,East,90,11.0,16.0,18,0.00,,SKC,0.00,VWS V14.01,2013-04-25 16:06:00,
2013-04-25 09:11:00,76.0,29.5,30.00,SSE,158,7.0,10.0,18,0.00,,SKC,0.00,VWS V14.01,2013-04-25 16:11:00,
2013-04-25 09:16:00,77.0,30.3,30.00,SSE,158,4.0,11.0,18,0.00,,SKC,0.00,VWS V14.01,2013-04-25 16:16:00,
2013-04-25 09:21:00,76.0,29.5,30.00,SE,135,9.0,13.0,18,0.00,,SKC,0.00,VWS V14.01,2013-04-25 16:21:00,
2013-04-25 09:26:00,77.0,30.3,30.00,SSE,158,15.0,16.0,18,0.00,,SKC,0.00,VWS V14.01,2013-04-25 16:26:00,
2013-04-25 09:31:00,77.0,30.3,30.00,SSE,158,13.0,15.0,18,0.00,,SKC,0.00,VWS V14.01,2013-04-25 16:31:00,
2013-04-25 09:36:00,78.0,31.1,30.00,SE,135,10.0,10.0,18,0.00,,SKC,0.00,VWS V14.01,2013-04-25 16:36:00,
2013-04-25 09:41:00,77.0,30.3,30.00,SSE,158,11.0,13.0,18,0.00,,SKC,0.00,VWS V14.01,2013-04-25 16:41:00,
2013-04-25 09:46:00,78.0,31.1,30.00,SSE,158,11.0,11.0,18,0.00,,SKC,0.00,VWS V14.01,2013-04-25 16:46:00,
2013-04-25 09:51:00,78.0,29.7,30.00,SE,135,12.0,16.0,17,0.00,,SKC,0.00,VWS V14.01,2013-04-25 16:51:00,
2013-04-25 09:56:00,79.0,30.5,30.00,SSE,158,10.0,13.0,17,0.00,,SKC,0.00,VWS V14.01,2013-04-25 16:56:00,
2013-04-25 10:01:00,79.0,30.5,30.00,SE,135,11.0,11.0,17,0.00,,SKC,0.00,VWS V14.01,2013-04-25 17:01:00,
2013-04-25 10:06:00,79.0,30.5,30.00,SSE,158,16.0,18.0,17,0.00,,SKC,0.00,VWS V14.01,2013-04-25 17:06:00,
2013-04-25 10:11:00,79.0,30.5,30.00,SE,135,18.0,18.0,17,0.00,,SKC,0.00,VWS V14.01,2013-04-25 17:11:00,
2013-04-25 10:16:00,79.0,30.5,30.00,SE,135,16.0,16.0,17,0.00,,SKC,0.00,VWS V14.01,2013-04-25 17:16:00,
2013-04-25 10:21:00,79.0,30.5,30.00,SSE,158,7.0,14.0,17,0.00,,SKC,0.00,VWS V14.01,2013-04-25 17:21:00,
2013-04-25 10:26:00,80.0,31.3,30.00,SSE,158,10.0,11.0,17,0.00,,SKC,0.00,VWS V14.01,2013-04-25 17:26:00,
2013-04-25 10:31:00,80.0,29.8,30.00,South,180,13.0,20.0,16,0.00,,SKC,0.00,VWS V14.01,2013-04-25 17:31:00,
2013-04-25 10:36:00,81.0,30.6,30.00,South,180,5.0,6.0,16,0.00,,SKC,0.00,VWS V14.01,2013-04-25 17:36:00,
2013-04-25 10:41:00,81.0,29.0,30.00,SW,225,14.0,14.0,15,0.00,,SKC,0.00,VWS V14.01,2013-04-25 17:41:00,
2013-04-25 10:46:00,80.0,28.2,30.00,South,180,13.0,14.0,15,0.00,,SKC,0.00,VWS V14.01,2013-04-25 17:46:00,
2013-04-25 10:51:00,80.0,29.8,30.00,SSW,202,11.0,13.0,16,0.00,,SKC,0.00,VWS V14.01,2013-04-25 17:51:00,
2013-04-25 10:56:00,81.0,30.6,30.00,SSW,202,13.0,15.0,16,0.00,,SKC,0.00,VWS V14.01,2013-04-25 17:56:00,
2013-04-25 11:01:00,81.0,30.6,30.00,SSE,158,13.0,14.0,16,0.00,,SKC,0.00,VWS V14.01,2013-04-25 18:01:00,
2013-04-25 11:06:00,81.0,29.0,30.00,SW,225,8.0,11.0,15,0.00,,SKC,0.00,VWS V14.01,2013-04-25 18:06:00,
2013-04-25 11:11:00,81.0,29.0,30.00,SW,225,8.0,8.0,15,0.00,,SKC,0.00,VWS V14.01,2013-04-25 18:11:00,
2013-04-25 11:16:00,81.0,29.0,30.00,SW,225,16.0,16.0,15,0.00,,SKC,0.00,VWS V14.01,2013-04-25 18:16:00,
2013-04-25 11:21:00,81.0,29.0,30.00,SW,225,7.0,10.0,15,0.00,,SKC,0.00,VWS V14.01,2013-04-25 18:21:00,
2013-04-25 11:26:00,81.0,29.0,29.99,SW,225,19.0,21.0,15,0.00,,SKC,0.00,VWS V14.01,2013-04-25 18:26:00,
2013-04-25 11:31:00,81.0,29.0,30.00,SE,135,11.0,11.0,15,0.00,,SKC,0.00,VWS V14.01,2013-04-25 18:31:00,
2013-04-25 11:36:00,81.0,29.0,30.00,SSW,202,9.0,13.0,15,0.00,,SKC,0.00,VWS V14.01,2013-04-25 18:36:00,
2013-04-25 11:41:00,81.0,27.4,30.00,WSW,248,10.0,16.0,14,0.00,,SKC,0.00,VWS V14.01,2013-04-25 18:41:00,
2013-04-25 11:46:00,81.0,27.4,30.00,WSW,248,13.0,13.0,14,0.00,,SKC,0.00,VWS V14.01,2013-04-25 18:46:00,
2013-04-25 11:51:00,82.0,26.4,30.00,SSE,158,10.0,12.0,13,0.00,,SKC,0.00,VWS V14.01,2013-04-25 18:51:00,
2013-04-25 11:56:00,81.0,23.7,30.00,South,180,4.0,8.0,12,0.00,,SKC,0.00,VWS V14.01,2013-04-25 18:56:00,
2013-04-25 12:01:00,81.0,23.7,30.00,SW,225,17.0,21.0,12,0.00,,SKC,0.00,VWS V14.01,2013-04-25 19:01:00,
2013-04-25 12:06:00,82.0,24.4,30.00,SSE,158,10.0,13.0,12,0.00,,SKC,0.00,VWS V14.01,2013-04-25 19:06:00,
2013-04-25 12:11:00,82.0,24.4,30.00,SSW,202,12.0,16.0,12,0.00,,SKC,0.00,VWS V14.01,2013-04-25 19:11:00,
2013-04-25 12:16:00,82.0,24.4,30.00,SSW,202,8.0,17.0,12,0.00,,SKC,0.00,VWS V14.01,2013-04-25 19:16:00,
2013-04-25 12:21:00,82.0,24.4,30.00,WSW,248,6.0,9.0,12,0.00,,SKC,0.00,VWS V14.01,2013-04-25 19:21:00,
2013-04-25 12:26:00,82.0,24.4,30.00,SSW,202,13.0,13.0,12,0.00,,SKC,0.00,VWS V14.01,2013-04-25 19:26:00,
2013-04-25 12:31:00,82.0,22.4,30.00,SW,225,11.0,14.0,11,0.00,,SKC,0.00,VWS V14.01,2013-04-25 19:31:00,
2013-04-25 12:36:00,81.0,21.6,30.00,South,180,7.0,8.0,11,0.00,,SKC,0.00,VWS V14.01,2013-04-25 19:36:00,
2013-04-25 12:41:00,82.0,22.4,30.00,North,0,12.0,15.0,11,0.00,,SKC,0.00,VWS V14.01,2013-04-25 19:41:00,
2013-04-25 12:46:00,82.0,22.4,30.00,SSW,202,7.0,9.0,11,0.00,,SKC,0.00,VWS V14.01,2013-04-25 19:46:00,
2013-04-25 12:51:00,82.0,22.4,30.00,WSW,248,8.0,13.0,11,0.00,,SKC,0.00,VWS V14.01,2013-04-25 19:51:00,
2013-04-25 12:56:00,81.0,23.7,30.00,SW,225,8.0,11.0,12,0.00,,SKC,0.00,VWS V14.01,2013-04-25 19:56:00,
2013-04-25 13:01:00,83.0,23.1,30.00,SE,135,10.0,11.0,11,0.00,,SKC,0.00,VWS V14.01,2013-04-25 20:01:00,
2013-04-25 13:06:00,83.0,25.2,30.00,South,180,11.0,13.0,12,0.00,,SKC,0.00,VWS V14.01,2013-04-25 20:06:00,
2013-04-25 13:11:00,83.0,25.2,30.00,SW,225,13.0,19.0,12,0.00,,SKC,0.00,VWS V14.01,2013-04-25 20:11:00,
2013-04-25 13:16:00,83.0,27.1,30.01,SW,225,9.0,11.0,13,0.00,,SKC,0.00,VWS V14.01,2013-04-25 20:16:00,
2013-04-25 13:21:00,83.0,25.2,30.00,SW,225,6.0,8.0,12,0.00,,SKC,0.00,VWS V14.01,2013-04-25 20:21:00,
2013-04-25 13:26:00,83.0,27.1,30.00,SW,225,10.0,10.0,13,0.00,,SKC,0.00,VWS V14.01,2013-04-25 20:26:00,
2013-04-25 13:31:00,82.0,29.8,30.00,SW,225,19.0,19.0,15,0.00,,SKC,0.00,VWS V14.01,2013-04-25 20:31:00,
2013-04-25 13:36:00,81.0,30.6,30.00,WSW,248,13.0,16.0,16,0.00,,SKC,0.00,VWS V14.01,2013-04-25 20:36:00,
2013-04-25 13:41:00,81.0,29.0,30.00,NNE,22,8.0,10.0,15,0.00,,SKC,0.00,VWS V14.01,2013-04-25 20:41:00,
2013-04-25 13:46:00,81.0,30.6,30.00,South,180,14.0,14.0,16,0.00,,SKC,0.00,VWS V14.01,2013-04-25 20:46:00,
2013-04-25 13:51:00,82.0,31.4,30.00,SW,225,7.0,11.0,16,0.00,,SKC,0.00,VWS V14.01,2013-04-25 20:51:00,
2013-04-25 13:56:00,81.0,30.6,29.99,WSW,248,16.0,25.0,16,0.00,,SKC,0.00,VWS V14.01,2013-04-25 20:56:00,
2013-04-25 14:01:00,80.0,31.3,30.00,West,270,8.0,10.0,17,0.00,,SKC,0.00,VWS V14.01,2013-04-25 21:01:00,
2013-04-25 14:06:00,80.0,31.3,29.99,WSW,248,8.0,8.0,17,0.00,,SKC,0.00,VWS V14.01,2013-04-25 21:06:00,
2013-04-25 14:11:00,81.0,32.1,29.99,WSW,248,11.0,14.0,17,0.00,,SKC,0.00,VWS V14.01,2013-04-25 21:11:00,
2013-04-25 14:16:00,80.0,31.3,29.99,SSW,202,13.0,14.0,17,0.00,,SKC,0.00,VWS V14.01,2013-04-25 21:16:00,
2013-04-25 14:21:00,81.0,32.1,29.99,WSW,248,13.0,16.0,17,0.00,,SKC,0.00,VWS V14.01,2013-04-25 21:21:00,
2013-04-25 14:26:00,81.0,32.1,29.99,WSW,248,11.0,14.0,17,0.00,,SKC,0.00,VWS V14.01,2013-04-25 21:26:00,
2013-04-25 14:31:00,80.0,31.3,29.99,WSW,248,13.0,14.0,17,0.00,,SKC,0.00,VWS V14.01,2013-04-25 21:31:00,
2013-04-25 14:36:00,81.0,33.5,29.99,SW,225,26.0,26.0,18,0.00,,SKC,0.00,VWS V14.01,2013-04-25 21:36:00,
2013-04-25 14:41:00,81.0,33.5,29.99,West,270,15.0,19.0,18,0.00,,SKC,0.00,VWS V14.01,2013-04-25 21:41:00,
2013-04-25 14:46:00,80.0,32.7,29.99,WSW,248,13.0,21.0,18,0.00,,SKC,0.00,VWS V14.01,2013-04-25 21:46:00,
2013-04-25 14:51:00,79.0,31.9,29.99,South,180,14.0,19.0,18,0.00,,SKC,0.00,VWS V14.01,2013-04-25 21:51:00,
2013-04-25 14:56:00,80.0,32.7,29.99,SW,225,19.0,19.0,18,0.00,,SKC,0.00,VWS V14.01,2013-04-25 21:56:00,
2013-04-25 15:01:00,79.0,30.5,29.99,SW,225,8.0,14.0,17,0.00,,SKC,0.00,VWS V14.01,2013-04-25 22:01:00,
2013-04-25 15:06:00,79.0,31.9,29.99,SW,225,11.0,15.0,18,0.00,,SKC,0.00,VWS V14.01,2013-04-25 22:06:00,
2013-04-25 15:11:00,79.0,31.9,29.99,WSW,248,12.0,14.0,18,0.00,,SKC,0.00,VWS V14.01,2013-04-25 22:11:00,
2013-04-25 15:16:00,79.0,31.9,29.99,SW,225,20.0,24.0,18,0.00,,SKC,0.00,VWS V14.01,2013-04-25 22:16:00,
2013-04-25 15:21:00,78.0,29.7,29.99,West,270,21.0,21.0,17,0.00,,SKC,0.00,VWS V14.01,2013-04-25 22:21:00,
2013-04-25 15:26:00,78.0,28.2,29.99,WSW,248,8.0,11.0,16,0.00,,SKC,0.00,VWS V14.01,2013-04-25 22:26:00,
2013-04-25 15:31:00,80.0,29.8,29.99,SW,225,12.0,12.0,16,0.00,,SKC,0.00,VWS V14.01,2013-04-25 22:31:00,
2013-04-25 15:36:00,79.0,29.0,29.99,WSW,248,17.0,17.0,16,0.00,,SKC,0.00,VWS V14.01,2013-04-25 22:36:00,
2013-04-25 15:41:00,78.0,28.2,29.99,West,270,19.0,20.0,16,0.00,,SKC,0.00,VWS V14.01,2013-04-25 22:41:00,
2013-04-25 15:46:00,79.0,29.0,29.99,WSW,248,13.0,14.0,16,0.00,,SKC,0.00,VWS V14.01,2013-04-25 22:46:00,
2013-04-25 15:51:00,78.0,28.2,29.99,WSW,248,14.0,14.0,16,0.00,,SKC,0.00,VWS V14.01,2013-04-25 22:51:00,
2013-04-25 15:56:00,78.0,26.6,29.99,SW,225,22.0,23.0,15,0.00,,SKC,0.00,VWS V14.01,2013-04-25 22:56:00,
2013-04-25 16:01:00,79.0,27.5,29.99,WSW,248,13.0,14.0,15,0.00,,SKC,0.00,VWS V14.01,2013-04-25 23:01:00,
2013-04-25 16:06:00,79.0,27.5,30.00,SW,225,19.0,21.0,15,0.00,,SKC,0.00,VWS V14.01,2013-04-25 23:06:00,
2013-04-25 16:11:00,78.0,26.6,30.00,West,270,21.0,21.0,15,0.00,,SKC,0.00,VWS V14.01,2013-04-25 23:11:00,
2013-04-25 16:16:00,79.0,29.0,30.00,SW,225,10.0,13.0,16,0.00,,SKC,0.00,VWS V14.01,2013-04-25 23:16:00,
2013-04-25 16:21:00,79.0,31.9,30.00,WSW,248,10.0,12.0,18,0.00,,SKC,0.00,VWS V14.01,2013-04-25 23:21:00,
2013-04-25 16:26:00,78.0,32.4,30.00,WSW,248,8.0,10.0,19,0.00,,SKC,0.00,VWS V14.01,2013-04-25 23:26:00,
2013-04-25 16:31:00,78.0,31.1,30.00,SW,225,6.0,10.0,18,0.00,,SKC,0.00,VWS V14.01,2013-04-25 23:31:00,
2013-04-25 16:36:00,78.0,32.4,30.00,WSW,248,14.0,15.0,19,0.00,,SKC,0.00,VWS V14.01,2013-04-25 23:36:00,
2013-04-25 16:41:00,77.0,31.6,30.00,WSW,248,9.0,10.0,19,0.00,,SKC,0.00,VWS V14.01,2013-04-25 23:41:00,
2013-04-25 16:46:00,77.0,31.6,30.01,WNW,292,15.0,17.0,19,0.00,,SKC,0.00,VWS V14.01,2013-04-25 23:46:00,
2013-04-25 16:51:00,77.0,31.6,30.01,West,270,9.0,12.0,19,0.00,,SKC,0.00,VWS V14.01,2013-04-25 23:51:00,
2013-04-25 16:56:00,77.0,31.6,30.01,WSW,248,13.0,13.0,19,0.00,,SKC,0.00,VWS V14.01,2013-04-25 23:56:00,
2013-04-25 17:01:00,77.0,31.6,30.01,WSW,248,11.0,15.0,19,0.00,,SKC,0.00,VWS V14.01,2013-04-26 00:01:00,
2013-04-25 17:06:00,76.0,32.1,30.01,West,270,17.0,17.0,20,0.00,,SKC,0.00,VWS V14.01,2013-04-26 00:06:00,
2013-04-25 17:11:00,76.0,32.1,30.01,SW,225,8.0,16.0,20,0.00,,SKC,0.00,VWS V14.01,2013-04-26 00:11:00,
2013-04-25 17:16:00,75.0,30.0,30.01,WSW,248,13.0,19.0,19,0.00,,SKC,0.00,VWS V14.01,2013-04-26 00:16:00,
2013-04-25 17:21:00,75.0,31.2,30.01,WSW,248,13.0,16.0,20,0.00,,SKC,0.00,VWS V14.01,2013-04-26 00:21:00,
2013-04-25 17:26:00,76.0,30.8,30.01,NW,315,10.0,11.0,19,0.00,,SKC,0.00,VWS V14.01,2013-04-26 00:26:00,
2013-04-25 17:31:00,75.0,30.0,30.02,SW,225,9.0,10.0,19,0.00,,SKC,0.00,VWS V14.01,2013-04-26 00:31:00,
2013-04-25 17:36:00,75.0,30.0,30.02,WSW,248,10.0,10.0,19,0.00,,SKC,0.00,VWS V14.01,2013-04-26 00:36:00,
2013-04-25 17:41:00,75.0,30.0,30.02,WSW,248,7.0,8.0,19,0.00,,SKC,0.00,VWS V14.01,2013-04-26 00:41:00,
2013-04-25 17:46:00,75.0,31.2,30.02,West,270,12.0,14.0,20,0.00,,SKC,0.00,VWS V14.01,2013-04-26 00:46:00,
2013-04-25 17:51:00,75.0,30.0,30.02,WSW,248,9.0,9.0,19,0.00,,SKC,0.00,VWS V14.01,2013-04-26 00:51:00,
2013-04-25 17:56:00,75.0,30.0,30.02,WSW,248,13.0,14.0,19,0.00,,SKC,0.00,VWS V14.01,2013-04-26 00:56:00,
2013-04-25 18:01:00,75.0,28.7,30.02,SW,225,10.0,10.0,18,0.00,,SKC,0.00,VWS V14.01,2013-04-26 01:01:00,
2013-04-25 18:06:00,75.0,27.3,30.02,SW,225,7.0,13.0,17,0.00,,SKC,0.00,VWS V14.01,2013-04-26 01:06:00,
2013-04-25 18:11:00,74.0,27.9,30.03,WSW,248,9.0,11.0,18,0.00,,SKC,0.00,VWS V14.01,2013-04-26 01:11:00,
2013-04-25 18:16:00,74.0,26.5,30.03,WNW,292,7.0,14.0,17,0.00,,SKC,0.00,VWS V14.01,2013-04-26 01:16:00,
2013-04-25 18:21:00,74.0,26.5,30.03,WSW,248,8.0,10.0,17,0.00,,SKC,0.00,VWS V14.01,2013-04-26 01:21:00,
2013-04-25 18:26:00,74.0,27.9,30.03,West,270,8.0,10.0,18,0.00,,SKC,0.00,VWS V14.01,2013-04-26 01:26:00,
2013-04-25 18:31:00,74.0,27.9,30.03,SW,225,11.0,14.0,18,0.00,,SKC,0.00,VWS V14.01,2013-04-26 01:31:00,
2013-04-25 18:36:00,73.0,25.6,30.03,West,270,5.0,7.0,17,0.00,,SKC,0.00,VWS V14.01,2013-04-26 01:36:00,
2013-04-25 18:41:00,73.0,25.6,30.03,SW,225,11.0,12.0,17,0.00,,SKC,0.00,VWS V14.01,2013-04-26 01:41:00,
2013-04-25 18:46:00,73.0,25.6,30.03,West,270,11.0,12.0,17,0.00,,SKC,0.00,VWS V14.01,2013-04-26 01:46:00,
2013-04-25 18:51:00,72.0,24.8,30.04,West,270,8.0,9.0,17,0.00,,SKC,0.00,VWS V14.01,2013-04-26 01:51:00,
2013-04-25 18:56:00,72.0,24.8,30.04,West,270,5.0,6.0,17,0.00,,SKC,0.00,VWS V14.01,2013-04-26 01:56:00,
2013-04-25 19:01:00,72.0,24.8,30.04,WSW,248,10.0,10.0,17,0.00,,SKC,0.00,VWS V14.01,2013-04-26 02:01:00,
2013-04-25 19:06:00,71.0,24.0,30.04,West,270,6.0,7.0,17,0.00,,SKC,0.00,VWS V14.01,2013-04-26 02:06:00,
2013-04-25 19:11:00,71.0,24.0,30.04,SW,225,6.0,6.0,17,0.00,,SKC,0.00,VWS V14.01,2013-04-26 02:11:00,
2013-04-25 19:16:00,71.0,24.0,30.04,SW,225,5.0,5.0,17,0.00,,SKC,0.00,VWS V14.01,2013-04-26 02:16:00,
2013-04-25 19:21:00,71.0,24.0,30.04,WSW,248,4.0,5.0,17,0.00,,SKC,0.00,VWS V14.01,2013-04-26 02:21:00,
2013-04-25 19:26:00,71.0,24.0,30.04,WSW,248,4.0,4.0,17,0.00,,SKC,0.00,VWS V14.01,2013-04-26 02:26:00,
2013-04-25 19:31:00,70.0,23.2,30.05,WSW,248,3.0,4.0,17,0.00,,SKC,0.00,VWS V14.01,2013-04-26 02:31:00,
2013-04-25 19:36:00,70.0,24.6,30.05,WSW,248,4.0,5.0,18,0.00,,SKC,0.00,VWS V14.01,2013-04-26 02:36:00,
2013-04-25 19:41:00,70.0,24.6,30.05,WSW,248,1.0,1.0,18,0.00,,SKC,0.00,VWS V14.01,2013-04-26 02:41:00,
2013-04-25 19:46:00,70.0,24.6,30.05,WSW,248,2.0,3.0,18,0.00,,SKC,0.00,VWS V14.01,2013-04-26 02:46:00,
2013-04-25 19:51:00,69.0,25.1,30.06,West,270,1.0,2.0,19,0.00,,SKC,0.00,VWS V14.01,2013-04-26 02:51:00,
2013-04-25 19:56:00,69.0,25.1,30.06,WNW,292,0.0,0.0,19,0.00,,SKC,0.00,VWS V14.01,2013-04-26 02:56:00,
2013-04-25 20:01:00,69.0,25.1,30.06,NW,315,0.0,0.0,19,0.00,,SKC,0.00,VWS V14.01,2013-04-26 03:01:00,
2013-04-25 20:06:00,69.0,25.1,30.06,West,270,0.0,0.0,19,0.00,,SKC,0.00,VWS V14.01,2013-04-26 03:06:00,
2013-04-25 20:11:00,68.0,25.5,30.07,West,270,0.0,0.0,20,0.00,,SKC,0.00,VWS V14.01,2013-04-26 03:11:00,
2013-04-25 20:16:00,68.0,26.6,30.07,West,270,0.0,0.0,21,0.00,,SKC,0.00,VWS V14.01,2013-04-26 03:16:00,
2013-04-25 20:21:00,68.0,26.6,30.07,West,270,0.0,0.0,21,0.00,,SKC,0.00,VWS V14.01,2013-04-26 03:21:00,
2013-04-25 20:26:00,67.0,26.9,30.07,West,270,0.0,0.0,22,0.00,,SKC,0.00,VWS V14.01,2013-04-26 03:26:00,
2013-04-25 20:31:00,67.0,26.9,30.07,West,270,0.0,0.0,22,0.00,,SKC,0.00,VWS V14.01,2013-04-26 03:31:00,
2013-04-25 20:36:00,67.0,26.9,30.08,West,270,0.0,0.0,22,0.00,,SKC,0.00,VWS V14.01,2013-04-26 03:36:00,
2013-04-25 20:41:00,66.0,27.2,30.08,WNW,292,0.0,0.0,23,0.00,,SKC,0.00,VWS V14.01,2013-04-26 03:41:00,
2013-04-25 20:46:00,66.0,27.2,30.08,WNW,292,0.0,0.0,23,0.00,,SKC,0.00,VWS V14.01,2013-04-26 03:46:00,
2013-04-25 20:51:00,66.0,28.2,30.08,WNW,292,0.0,0.0,24,0.00,,SKC,0.00,VWS V14.01,2013-04-26 03:51:00,
2013-04-25 20:56:00,66.0,27.2,30.09,WNW,292,0.0,0.0,23,0.00,,SKC,0.00,VWS V14.01,2013-04-26 03:56:00,
2013-04-25 21:01:00,66.0,28.2,30.09,WNW,292,0.0,0.0,24,0.00,,SKC,0.00,VWS V14.01,2013-04-26 04:01:00,
2013-04-25 21:02:00,66.0,28.2,30.09,WNW,292,0.0,0.0,24,0.00,,SKC,0.00,VWS V14.01,2013-04-26 04:02:00,
2013-04-25 21:03:00,66.0,27.2,30.09,WNW,292,0.0,0.0,23,0.00,,SKC,0.00,VWS V14.01,2013-04-26 04:03:00,
2013-04-25 21:06:00,66.0,27.2,30.09,NNE,22,0.0,0.0,23,0.00,,SKC,0.00,VWS V14.01,2013-04-26 04:06:00,
2013-04-25 21:08:00,66.0,27.2,30.09,North,0,1.0,1.0,23,0.00,,SKC,0.00,VWS V14.01,2013-04-26 04:08:00,
2013-04-25 21:13:00,66.0,27.2,30.09,North,0,0.0,0.0,23,0.00,,SKC,0.00,VWS V14.01,2013-04-26 04:13:00,
2013-04-25 21:18:00,66.0,27.2,30.09,North,0,0.0,0.0,23,0.00,,SKC,0.00,VWS V14.01,2013-04-26 04:18:00,
2013-04-25 21:23:00,66.0,28.2,30.09,North,0,0.0,0.0,24,0.00,,SKC,0.00,VWS V14.01,2013-04-26 04:23:00,
2013-04-25 21:28:00,66.0,28.2,30.10,NW,315,0.0,0.0,24,0.00,,SKC,0.00,VWS V14.01,2013-04-26 04:28:00,
2013-04-25 21:33:00,66.0,29.2,30.10,NNW,338,0.0,0.0,25,0.00,,SKC,0.00,VWS V14.01,2013-04-26 04:33:00,
2013-04-25 21:38:00,66.0,29.2,30.10,NNE,22,0.0,0.0,25,0.00,,SKC,0.00,VWS V14.01,2013-04-26 04:38:00,
2013-04-25 21:43:00,66.0,29.2,30.10,NNE,22,0.0,0.0,25,0.00,,SKC,0.00,VWS V14.01,2013-04-26 04:43:00,
2013-04-25 21:48:00,65.0,29.3,30.10,North,0,0.0,0.0,26,0.00,,SKC,0.00,VWS V14.01,2013-04-26 04:48:00,
2013-04-25 21:53:00,65.0,28.4,30.10,NNW,338,3.0,3.0,25,0.00,,SKC,0.00,VWS V14.01,2013-04-26 04:53:00,
2013-04-25 21:58:00,65.0,29.3,30.10,North,0,0.0,1.0,26,0.00,,SKC,0.00,VWS V14.01,2013-04-26 04:58:00,
2013-04-25 22:03:00,65.0,29.3,30.10,NNW,338,1.0,2.0,26,0.00,,SKC,0.00,VWS V14.01,2013-04-26 05:03:00,
2013-04-25 22:08:00,65.0,30.2,30.10,NW,315,0.0,1.0,27,0.00,,SKC,0.00,VWS V14.01,2013-04-26 05:08:00,
2013-04-25 22:13:00,64.0,29.4,30.10,NNW,338,1.0,3.0,27,0.00,,SKC,0.00,VWS V14.01,2013-04-26 05:13:00,
2013-04-25 22:18:00,64.0,29.4,30.10,NNE,22,4.0,5.0,27,0.00,,SKC,0.00,VWS V14.01,2013-04-26 05:18:00,
2013-04-25 22:23:00,64.0,28.5,30.10,NNE,22,3.0,3.0,26,0.00,,SKC,0.00,VWS V14.01,2013-04-26 05:23:00,
2013-04-25 22:28:00,64.0,28.5,30.10,NE,45,2.0,3.0,26,0.00,,SKC,0.00,VWS V14.01,2013-04-26 05:28:00,
2013-04-25 22:33:00,63.0,28.5,30.10,North,0,3.0,3.0,27,0.00,,SKC,0.00,VWS V14.01,2013-04-26 05:33:00,
2013-04-25 22:38:00,63.0,28.5,30.10,NE,45,1.0,2.0,27,0.00,,SKC,0.00,VWS V14.01,2013-04-26 05:38:00,
2013-04-25 22:43:00,62.0,28.5,30.10,North,0,3.0,4.0,28,0.00,,SKC,0.00,VWS V14.01,2013-04-26 05:43:00,
2013-04-25 22:48:00,62.0,29.4,30.11,NNE,22,3.0,5.0,29,0.00,,SKC,0.00,VWS V14.01,2013-04-26 05:48:00,
2013-04-25 22:53:00,62.0,29.4,30.10,NNE,22,4.0,5.0,29,0.00,,SKC,0.00,VWS V14.01,2013-04-26 05:53:00,
2013-04-25 22:58:00,62.0,30.2,30.10,North,0,3.0,3.0,30,0.00,,SKC,0.00,VWS V14.01,2013-04-26 05:58:00,
2013-04-25 23:03:00,61.0,29.4,30.10,NNE,22,3.0,3.0,30,0.00,,SKC,0.00,VWS V14.01,2013-04-26 06:03:00,
2013-04-25 23:08:00,61.0,29.4,30.11,North,0,5.0,6.0,30,0.00,,SKC,0.00,VWS V14.01,2013-04-26 06:08:00,
2013-04-25 23:13:00,61.0,30.2,30.11,NNE,22,3.0,4.0,31,0.00,,SKC,0.00,VWS V14.01,2013-04-26 06:13:00,
2013-04-25 23:18:00,61.0,29.4,30.11,North,0,3.0,3.0,30,0.00,,SKC,0.00,VWS V14.01,2013-04-26 06:18:00,
2013-04-25 23:23:00,61.0,30.2,30.11,NNE,22,2.0,3.0,31,0.00,,SKC,0.00,VWS V14.01,2013-04-26 06:23:00,
2013-04-25 23:28:00,61.0,30.2,30.11,North,0,5.0,5.0,31,0.00,,SKC,0.00,VWS V14.01,2013-04-26 06:28:00,
2013-04-25 23:33:00,62.0,31.0,30.11,North,0,4.0,5.0,31,0.00,,SKC,0.00,VWS V14.01,2013-04-26 06:33:00,
2013-04-25 23:38:00,62.0,31.0,30.11,North,0,3.0,5.0,31,0.00,,SKC,0.00,VWS V14.01,2013-04-26 06:38:00,
2013-04-25 23:43:00,62.0,31.0,30.11,NNW,338,3.0,3.0,31,0.00,,SKC,0.00,VWS V14.01,2013-04-26 06:43:00,
2013-04-25 23:48:00,62.0,31.8,30.11,NNW,338,4.0,5.0,32,0.00,,SKC,0.00,VWS V14.01,2013-04-26 06:48:00,
2013-04-25 23:53:00,62.0,31.8,30.11,NE,45,5.0,6.0,32,0.00,,SKC,0.00,VWS V14.01,2013-04-26 06:53:00,
2013-04-25 23:58:00,62.0,31.8,30.11,North,0,3.0,4.0,32,0.00,,SKC,0.00,VWS V14.01,2013-04-26 06:58:00,